createdAt,value
2018-07-20T00:02:09.015Z,25.00
2018-07-20T00:04:37.091Z,25.10
2018-07-20T00:07:05.406Z,25.10
2018-07-20T00:09:33.493Z,25.10
2018-07-20T00:12:01.595Z,25.00
2018-07-20T00:14:29.662Z,25.10
2018-07-20T00:16:57.756Z,25.10
2018-07-20T00:19:25.818Z,25.10
2018-07-20T00:21:53.916Z,25.10
2018-07-20T00:24:21.991Z,25.10
2018-07-20T00:29:18.007Z,25.20
2018-07-20T00:31:46.103Z,25.10
2018-07-20T00:34:14.216Z,25.10
2018-07-20T00:36:42.285Z,25.10
2018-07-20T00:39:11.236Z,25.10
2018-07-20T00:41:39.705Z,25.00
2018-07-20T00:44:07.787Z,24.90
2018-07-20T00:46:35.896Z,24.90
2018-07-20T00:49:03.960Z,24.90
2018-07-20T00:51:32.040Z,24.90
2018-07-20T00:54:00.114Z,24.80
2018-07-20T00:56:28.175Z,24.90
2018-07-20T00:58:56.256Z,24.90
2018-07-20T01:01:24.424Z,24.90
2018-07-20T01:03:52.488Z,24.90
2018-07-20T01:06:20.557Z,24.90
2018-07-20T01:08:48.735Z,24.80
2018-07-20T01:11:16.914Z,24.80
2018-07-20T01:13:44.999Z,24.80
2018-07-20T01:16:13.054Z,24.90
2018-07-20T01:18:41.136Z,25.00
2018-07-20T01:21:09.204Z,25.00
2018-07-20T01:23:37.275Z,24.90
2018-07-20T01:26:05.360Z,25.00
2018-07-20T01:28:33.707Z,24.90
2018-07-20T01:31:01.776Z,24.90
2018-07-20T01:33:29.858Z,24.80
2018-07-20T01:35:57.930Z,24.70
2018-07-20T01:38:26.091Z,24.80
2018-07-20T01:40:54.150Z,24.80
2018-07-20T01:43:22.219Z,24.80
2018-07-20T01:45:50.291Z,24.80
2018-07-20T01:48:18.371Z,24.80
2018-07-20T01:50:46.430Z,24.80
2018-07-20T01:53:14.614Z,24.80
2018-07-20T01:55:42.679Z,24.80
2018-07-20T01:58:10.738Z,24.80
2018-07-20T02:00:38.814Z,24.90
2018-07-20T02:03:07.551Z,24.90
2018-07-20T02:05:35.650Z,25.00
2018-07-20T02:08:03.743Z,25.00
2018-07-20T02:10:31.823Z,25.10
2018-07-20T02:13:00.044Z,25.10
2018-07-20T02:15:28.122Z,25.00
2018-07-20T02:17:56.202Z,24.90
2018-07-20T02:20:24.690Z,24.80
2018-07-20T02:22:52.790Z,24.70
2018-07-20T02:25:20.870Z,24.60
2018-07-20T02:27:48.946Z,24.50
2018-07-20T02:30:17.106Z,24.50
2018-07-20T02:32:45.168Z,24.50
2018-07-20T02:35:13.346Z,24.40
2018-07-20T02:37:41.410Z,24.20
2018-07-20T02:40:09.479Z,24.20
2018-07-20T02:42:37.551Z,24.20
2018-07-20T02:45:05.941Z,24.20
2018-07-20T02:47:34.028Z,24.30
2018-07-20T02:50:02.105Z,24.40
2018-07-20T02:52:30.163Z,24.50
2018-07-20T02:54:58.242Z,24.50
2018-07-20T02:57:26.307Z,24.50
2018-07-20T02:59:54.659Z,24.40
2018-07-20T03:02:22.836Z,24.30
2018-07-20T03:04:50.923Z,24.40
2018-07-20T03:07:19.059Z,24.30
2018-07-20T03:09:47.159Z,24.30
2018-07-20T03:12:15.215Z,24.20
2018-07-20T03:14:43.290Z,24.00
2018-07-20T03:17:11.542Z,24.00
2018-07-20T03:19:39.625Z,24.00
2018-07-20T03:22:07.691Z,24.10
2018-07-20T03:24:35.791Z,24.10
2018-07-20T03:27:03.871Z,24.10
2018-07-20T03:29:31.947Z,24.20
2018-07-20T03:32:00.131Z,24.30
2018-07-20T03:34:28.202Z,24.30
2018-07-20T03:36:56.288Z,24.20
2018-07-20T03:39:24.342Z,24.10
2018-07-20T03:41:52.435Z,24.00
2018-07-20T03:46:48.378Z,24.10
2018-07-20T03:49:16.440Z,24.00
2018-07-20T03:51:44.507Z,24.10
2018-07-20T03:54:12.563Z,24.10
2018-07-20T03:56:40.658Z,24.10
2018-07-20T03:59:08.746Z,24.10
2018-07-20T04:01:36.879Z,24.10
2018-07-20T04:04:04.971Z,23.90
2018-07-20T04:06:33.063Z,24.10
2018-07-20T04:09:01.135Z,24.20
2018-07-20T04:11:29.226Z,24.30
2018-07-20T04:13:57.318Z,24.40
2018-07-20T04:16:25.382Z,24.40
2018-07-20T04:18:53.695Z,24.30
2018-07-20T04:21:21.789Z,24.40
2018-07-20T04:23:49.867Z,24.40
2018-07-20T04:26:17.930Z,24.50
2018-07-20T04:28:46.006Z,24.50
2018-07-20T04:31:14.084Z,24.30
2018-07-20T04:33:42.142Z,23.80
2018-07-20T04:36:10.214Z,23.90
2018-07-20T04:38:38.294Z,23.70
2018-07-20T04:41:06.539Z,23.70
2018-07-20T04:43:34.607Z,23.90
2018-07-20T04:46:02.734Z,23.90
2018-07-20T04:48:30.899Z,23.80
2018-07-20T04:50:59.007Z,23.70
2018-07-20T04:53:27.478Z,23.80
2018-07-20T04:55:55.582Z,23.70
2018-07-20T04:58:23.651Z,23.70
2018-07-20T05:00:51.751Z,23.80
2018-07-20T05:03:19.847Z,24.00
2018-07-20T05:05:48.058Z,24.00
2018-07-20T05:08:16.070Z,23.90
2018-07-20T05:10:44.162Z,23.90
2018-07-20T05:13:12.243Z,23.80
2018-07-20T05:15:40.333Z,23.80
2018-07-20T05:18:08.390Z,23.90
2018-07-20T05:20:36.531Z,24.10
2018-07-20T05:23:05.062Z,24.20
2018-07-20T05:25:33.136Z,24.10
2018-07-20T05:28:01.291Z,24.00
2018-07-20T05:30:29.398Z,24.00
2018-07-20T05:32:57.529Z,24.00
2018-07-20T05:35:25.657Z,24.00
2018-07-20T05:37:53.724Z,24.10
2018-07-20T05:40:21.782Z,24.00
2018-07-20T05:42:49.870Z,23.90
2018-07-20T05:45:18.199Z,24.10
2018-07-20T05:47:46.313Z,24.00
2018-07-20T05:50:14.371Z,23.90
2018-07-20T05:52:42.453Z,23.80
2018-07-20T05:55:10.546Z,23.90
2018-07-20T05:57:38.648Z,23.90
2018-07-20T06:00:06.733Z,24.00
2018-07-20T06:02:34.891Z,24.20
2018-07-20T06:05:02.982Z,24.30
2018-07-20T06:07:31.407Z,24.50
2018-07-20T06:09:59.487Z,24.60
2018-07-20T06:12:27.570Z,24.70
2018-07-20T06:14:55.678Z,24.80
2018-07-20T06:17:23.763Z,24.90
2018-07-20T06:19:51.831Z,24.90
2018-07-20T06:22:19.915Z,25.00
2018-07-20T06:24:47.986Z,25.00
2018-07-20T06:27:16.065Z,25.00
2018-07-20T06:29:44.577Z,25.10
2018-07-20T06:32:12.854Z,25.10
2018-07-20T06:34:40.927Z,25.10
2018-07-20T06:37:09.011Z,25.10
2018-07-20T06:39:37.074Z,25.20
2018-07-20T06:42:05.254Z,25.20
2018-07-20T06:44:33.862Z,25.20
2018-07-20T06:47:01.934Z,25.30
2018-07-20T06:49:30.178Z,25.30
2018-07-20T06:51:58.242Z,25.30
2018-07-20T06:54:26.314Z,25.30
2018-07-20T06:56:54.387Z,25.30
2018-07-20T06:59:22.962Z,25.30
2018-07-20T07:01:51.070Z,25.30
2018-07-20T07:04:19.182Z,25.30
2018-07-20T07:06:47.283Z,25.30
2018-07-20T07:09:15.350Z,25.30
2018-07-20T07:11:43.419Z,25.30
2018-07-20T07:14:11.499Z,25.30
2018-07-20T07:16:39.599Z,25.30
2018-07-20T07:19:07.673Z,25.40
2018-07-20T07:21:35.768Z,25.30
2018-07-20T07:24:03.871Z,25.40
2018-07-20T07:26:32.259Z,25.40
2018-07-20T07:29:00.331Z,25.40
2018-07-20T07:31:28.395Z,25.40
2018-07-20T07:33:56.531Z,25.40
2018-07-20T07:36:24.618Z,25.40
2018-07-20T07:38:52.690Z,25.40
2018-07-20T07:41:20.779Z,25.40
2018-07-20T07:43:48.891Z,25.40
2018-07-20T07:46:17.063Z,25.40
2018-07-20T07:48:45.142Z,25.40
2018-07-20T07:51:13.215Z,25.50
2018-07-20T07:53:41.394Z,25.50
2018-07-20T07:56:09.569Z,25.50
2018-07-20T07:58:37.911Z,25.50
2018-07-20T08:01:06.240Z,25.50
2018-07-20T08:03:34.435Z,25.50
2018-07-20T08:06:02.755Z,25.50
2018-07-20T08:08:30.830Z,25.50
2018-07-20T08:10:58.950Z,25.60
2018-07-20T08:13:27.038Z,25.50
2018-07-20T08:15:55.166Z,25.60
2018-07-20T08:18:23.522Z,25.60
2018-07-20T08:20:51.612Z,25.60
2018-07-20T08:23:19.795Z,25.60
2018-07-20T08:25:47.871Z,25.60
2018-07-20T08:28:15.963Z,25.60
2018-07-20T08:30:44.014Z,25.60
2018-07-20T08:33:12.144Z,25.60
2018-07-20T08:35:40.213Z,25.60
2018-07-20T08:38:08.299Z,25.60
2018-07-20T08:40:36.387Z,25.60
2018-07-20T08:43:04.469Z,25.70
2018-07-20T08:45:32.551Z,25.70
2018-07-20T08:48:00.625Z,25.60
2018-07-20T08:50:28.702Z,25.70
2018-07-20T08:52:56.788Z,25.70
2018-07-20T08:55:24.867Z,25.70
2018-07-20T08:57:52.954Z,25.70
2018-07-20T09:00:21.023Z,25.70
2018-07-20T09:02:49.099Z,25.70
2018-07-20T09:05:17.171Z,25.70
2018-07-20T09:07:45.266Z,25.70
2018-07-20T09:10:13.372Z,25.70
2018-07-20T09:12:41.435Z,25.70
2018-07-20T09:15:09.515Z,25.70
2018-07-20T09:17:37.875Z,25.70
2018-07-20T09:20:05.957Z,25.70
2018-07-20T09:22:34.059Z,25.70
2018-07-20T09:25:02.119Z,25.70
2018-07-20T09:27:30.189Z,25.70
2018-07-20T09:29:58.262Z,25.70
2018-07-20T09:32:26.349Z,25.70
2018-07-20T09:34:54.822Z,25.70
2018-07-20T09:37:22.891Z,25.70
2018-07-20T09:39:50.963Z,25.70
2018-07-20T09:42:19.122Z,25.80
2018-07-20T09:44:47.238Z,25.80
2018-07-20T09:47:15.605Z,25.80
2018-07-20T09:49:43.702Z,25.80
2018-07-20T09:52:11.758Z,25.80
2018-07-20T09:54:39.859Z,25.80
2018-07-20T09:57:07.975Z,25.80
2018-07-20T09:59:36.148Z,25.80
2018-07-20T10:02:04.155Z,25.80
2018-07-20T10:04:32.227Z,25.80
2018-07-20T10:07:00.312Z,25.80
2018-07-20T10:09:29.294Z,25.80
2018-07-20T10:11:57.383Z,25.80
2018-07-20T10:14:25.457Z,25.80
2018-07-20T10:16:53.511Z,25.80
2018-07-20T10:19:21.625Z,25.80
2018-07-20T10:21:49.796Z,25.80
2018-07-20T10:24:18.135Z,25.80
2018-07-20T10:26:46.485Z,25.80
2018-07-20T10:29:14.563Z,25.80
2018-07-20T10:31:42.626Z,25.80
2018-07-20T10:34:10.691Z,25.80
2018-07-20T10:36:38.768Z,25.80
2018-07-20T10:39:08.383Z,25.80
2018-07-20T10:41:36.615Z,25.80
2018-07-20T10:44:04.703Z,25.80
2018-07-20T10:46:33.023Z,25.80
2018-07-20T10:49:01.307Z,25.80
2018-07-20T10:51:29.507Z,25.80
2018-07-20T10:53:57.586Z,25.80
2018-07-20T10:56:25.665Z,25.80
2018-07-20T10:58:54.483Z,25.80
2018-07-20T11:01:22.584Z,25.90
2018-07-20T11:03:50.663Z,25.80
2018-07-20T11:06:18.931Z,25.80
2018-07-20T11:11:15.236Z,25.90
2018-07-20T11:13:43.370Z,25.90
2018-07-20T11:16:11.436Z,25.90
2018-07-20T11:18:39.522Z,25.90
2018-07-20T11:21:07.623Z,25.80
2018-07-20T11:23:35.688Z,25.90
2018-07-20T11:26:03.750Z,25.90
2018-07-20T11:28:31.818Z,25.90
2018-07-20T11:30:59.914Z,25.90
2018-07-20T11:33:27.986Z,25.90
2018-07-20T11:35:56.059Z,25.90
2018-07-20T11:38:24.127Z,25.90
2018-07-20T11:40:52.230Z,26.00
2018-07-20T11:43:20.414Z,26.00
2018-07-20T11:45:48.487Z,26.00
2018-07-20T11:48:16.591Z,26.00
2018-07-20T11:50:44.666Z,26.00
2018-07-20T11:53:12.963Z,25.90
2018-07-20T11:55:41.040Z,26.00
2018-07-20T11:58:09.142Z,26.00
2018-07-20T12:00:37.398Z,26.00
2018-07-20T12:03:05.530Z,26.10
2018-07-20T12:05:33.602Z,26.10
2018-07-20T12:08:01.679Z,26.10
2018-07-20T12:10:30.078Z,26.10
2018-07-20T12:12:58.159Z,26.10
2018-07-20T12:15:26.262Z,26.10
2018-07-20T12:17:54.560Z,26.20
2018-07-20T12:20:22.663Z,26.10
2018-07-20T12:22:50.751Z,26.10
2018-07-20T12:25:18.831Z,26.10
2018-07-20T12:27:46.919Z,26.10
2018-07-20T12:30:15.028Z,26.10
2018-07-20T12:32:43.115Z,26.10
2018-07-20T12:35:11.231Z,26.20
2018-07-20T12:37:39.310Z,26.20
2018-07-20T12:40:07.388Z,26.20
2018-07-20T12:42:35.935Z,26.20
2018-07-20T12:45:03.995Z,26.20
2018-07-20T12:47:32.059Z,26.20
2018-07-20T12:50:00.134Z,26.20
2018-07-20T12:52:28.215Z,26.20
2018-07-20T12:54:56.527Z,26.20
2018-07-20T12:57:24.613Z,26.10
2018-07-20T12:59:52.714Z,26.20
2018-07-20T13:02:20.817Z,26.20
2018-07-20T13:04:48.983Z,26.20
2018-07-20T13:07:17.078Z,26.20
2018-07-20T13:09:45.228Z,26.20
2018-07-20T13:12:13.345Z,26.20
2018-07-20T13:14:41.386Z,26.20
2018-07-20T13:17:09.490Z,26.20
2018-07-20T13:19:37.542Z,26.20
2018-07-20T13:22:06.287Z,26.20
2018-07-20T13:24:34.376Z,26.20
2018-07-20T13:27:02.815Z,26.20
2018-07-20T13:29:30.890Z,26.20
2018-07-20T13:31:58.995Z,26.20
2018-07-20T13:34:27.062Z,26.20
2018-07-20T13:36:55.147Z,26.30
2018-07-20T13:39:23.256Z,26.20
2018-07-20T13:41:51.358Z,26.30
2018-07-20T13:44:19.423Z,26.30
2018-07-20T13:46:47.955Z,26.30
2018-07-20T13:49:16.091Z,26.30
2018-07-20T13:51:44.166Z,26.30
2018-07-20T13:54:12.234Z,26.30
2018-07-20T13:56:40.698Z,26.30
2018-07-20T13:59:08.781Z,26.30
2018-07-20T14:01:36.862Z,26.30
2018-07-20T14:04:05.113Z,26.30
2018-07-20T14:06:33.499Z,26.30
2018-07-20T14:09:01.570Z,26.30
2018-07-20T14:11:30.245Z,26.30
2018-07-20T14:13:58.284Z,26.30
2018-07-20T14:16:26.350Z,26.30
2018-07-20T14:18:54.447Z,26.30
2018-07-20T14:21:22.542Z,26.30
2018-07-20T14:23:50.619Z,26.30
2018-07-20T14:26:18.746Z,26.30
2018-07-20T14:28:46.806Z,26.30
2018-07-20T14:33:42.894Z,26.30
2018-07-20T14:36:10.991Z,26.30
2018-07-20T14:38:39.062Z,26.30
2018-07-20T14:41:07.130Z,26.30
2018-07-20T14:43:35.274Z,26.30
2018-07-20T14:46:03.607Z,26.30
2018-07-20T14:48:31.718Z,26.30
2018-07-20T14:50:59.848Z,26.30
2018-07-20T14:53:27.961Z,26.30
2018-07-20T14:55:56.075Z,26.30
2018-07-20T14:58:24.205Z,26.30
2018-07-20T15:00:52.258Z,26.30
2018-07-20T15:03:20.359Z,26.30
2018-07-20T15:05:48.446Z,26.30
2018-07-20T15:08:16.588Z,26.30
2018-07-20T15:10:44.675Z,26.30
2018-07-20T15:13:12.785Z,26.30
2018-07-20T15:15:40.843Z,26.30
2018-07-20T15:18:08.944Z,26.30
2018-07-20T15:20:37.039Z,26.30
2018-07-20T15:23:05.431Z,26.40
2018-07-20T15:25:33.535Z,26.40
2018-07-20T15:28:01.600Z,26.40
2018-07-20T15:30:29.690Z,26.40
2018-07-20T15:35:25.786Z,26.40
2018-07-20T15:37:53.951Z,26.40
2018-07-20T15:40:22.351Z,26.30
2018-07-20T15:42:50.422Z,26.30
2018-07-20T15:45:18.507Z,26.30
2018-07-20T15:47:46.586Z,26.30
2018-07-20T15:50:14.919Z,26.40
2018-07-20T15:53:36.249Z,26.40
2018-07-20T15:55:11.079Z,26.30
2018-07-20T15:57:39.618Z,26.40
2018-07-20T16:00:08.085Z,26.40
2018-07-20T16:05:04.052Z,26.50
2018-07-20T16:07:32.151Z,26.50
2018-07-20T16:10:00.218Z,26.50
2018-07-20T16:12:28.295Z,26.50
2018-07-20T16:14:56.363Z,26.50
2018-07-20T16:17:24.450Z,26.50
2018-07-20T16:19:52.512Z,26.50
2018-07-20T16:22:20.636Z,26.50
2018-07-20T16:24:48.738Z,26.50
2018-07-20T16:27:17.170Z,26.50
2018-07-20T16:29:45.248Z,26.50
2018-07-20T16:32:13.338Z,26.50
2018-07-20T16:34:41.558Z,26.50
2018-07-20T16:37:09.623Z,26.50
2018-07-20T16:39:37.710Z,26.50
2018-07-20T16:42:05.887Z,26.50
2018-07-20T16:44:34.019Z,26.50
2018-07-20T16:47:02.160Z,26.50
2018-07-20T16:49:30.250Z,26.50
2018-07-20T16:51:58.315Z,26.50
2018-07-20T16:54:26.391Z,26.50
2018-07-20T16:56:54.518Z,26.50
2018-07-20T16:59:22.575Z,26.50
2018-07-20T17:01:50.639Z,26.50
2018-07-20T17:04:19.348Z,26.40
2018-07-20T17:06:47.402Z,26.40
2018-07-20T17:09:15.475Z,26.40
2018-07-20T17:11:43.539Z,26.40
2018-07-20T17:14:11.627Z,26.40
2018-07-20T17:16:39.683Z,26.40
2018-07-20T17:19:07.758Z,26.40
2018-07-20T17:21:35.956Z,26.40
2018-07-20T17:24:04.128Z,26.40
2018-07-20T17:26:32.218Z,26.40
2018-07-20T17:29:00.290Z,26.40
2018-07-20T17:31:28.363Z,26.40
2018-07-20T17:33:56.451Z,26.40
2018-07-20T17:36:24.891Z,26.30
2018-07-20T17:38:53.368Z,26.30
2018-07-20T17:41:21.450Z,26.30
2018-07-20T17:43:49.539Z,26.30
2018-07-20T17:46:17.824Z,26.30
2018-07-20T17:48:46.265Z,26.40
2018-07-20T17:51:14.640Z,26.40
2018-07-20T17:53:42.710Z,26.40
2018-07-20T17:56:10.886Z,26.40
2018-07-20T17:58:38.977Z,26.40
2018-07-20T18:01:07.049Z,26.40
2018-07-20T18:03:35.193Z,26.40
2018-07-20T18:06:03.275Z,26.40
2018-07-20T18:08:31.367Z,26.40
2018-07-20T18:10:59.462Z,26.40
2018-07-20T18:13:27.534Z,26.40
2018-07-20T18:15:55.882Z,26.40
2018-07-20T18:18:23.979Z,26.40
2018-07-20T18:20:52.078Z,26.40
2018-07-20T18:23:20.174Z,26.40
2018-07-20T18:25:48.270Z,26.40
2018-07-20T18:28:16.343Z,26.40
2018-07-20T18:30:44.983Z,26.40
2018-07-20T18:33:13.067Z,26.40
2018-07-20T18:35:41.151Z,26.40
2018-07-20T18:38:09.239Z,26.40
2018-07-20T18:40:37.334Z,26.40
2018-07-20T18:43:05.403Z,26.40
2018-07-20T18:45:33.486Z,26.40
2018-07-20T18:48:01.587Z,26.40
2018-07-20T18:50:29.675Z,26.40
2018-07-20T18:52:58.075Z,26.40
2018-07-20T18:55:26.138Z,26.40
2018-07-20T18:57:54.226Z,26.40
2018-07-20T19:00:22.318Z,26.40
2018-07-20T19:02:50.404Z,26.40
2018-07-20T19:05:18.510Z,26.40
2018-07-20T19:07:46.820Z,26.40
2018-07-20T19:10:14.946Z,26.40
2018-07-20T19:12:43.275Z,26.40
2018-07-20T19:15:11.373Z,26.40
2018-07-20T19:17:39.590Z,26.40
2018-07-20T19:20:07.675Z,26.40
2018-07-20T19:22:35.734Z,26.30
2018-07-20T19:25:03.834Z,26.40
2018-07-20T19:27:31.907Z,26.30
2018-07-20T19:29:59.994Z,26.40
2018-07-20T19:32:28.342Z,26.40
2018-07-20T19:34:56.726Z,26.40
2018-07-20T19:37:24.790Z,26.40
2018-07-20T19:39:52.866Z,26.30
2018-07-20T19:42:20.954Z,26.40
2018-07-20T19:44:49.025Z,26.40
2018-07-20T19:47:17.087Z,26.30
2018-07-20T19:49:45.160Z,26.30
2018-07-20T19:54:41.158Z,26.30
2018-07-20T19:57:09.283Z,26.30
2018-07-20T19:59:37.355Z,26.30
2018-07-20T20:02:05.622Z,26.30
2018-07-20T20:04:33.974Z,26.30
2018-07-20T20:07:02.100Z,26.30
2018-07-20T20:09:30.167Z,26.30
2018-07-20T20:11:58.248Z,26.30
2018-07-20T20:14:26.310Z,26.30
2018-07-20T20:16:54.378Z,26.30
2018-07-20T20:19:22.791Z,26.30
2018-07-20T20:21:50.863Z,26.30
2018-07-20T20:24:19.129Z,26.30
2018-07-20T20:26:47.298Z,26.30
2018-07-20T20:29:15.650Z,26.30
2018-07-20T20:31:43.727Z,26.30
2018-07-20T20:34:11.799Z,26.30
2018-07-20T20:36:39.944Z,26.30
2018-07-20T20:39:09.799Z,26.30
2018-07-20T20:41:38.102Z,26.30
2018-07-20T20:46:34.163Z,26.30
2018-07-20T20:49:02.244Z,26.30
2018-07-20T20:51:30.314Z,26.30
2018-07-20T20:53:58.387Z,26.30
2018-07-20T20:56:26.478Z,26.30
2018-07-20T20:58:54.626Z,26.30
2018-07-20T21:01:22.697Z,26.30
2018-07-20T21:03:50.794Z,26.30
2018-07-20T21:06:19.290Z,26.30
2018-07-20T21:08:47.567Z,26.30
2018-07-20T21:11:15.638Z,26.30
2018-07-20T21:13:43.735Z,26.30
2018-07-20T21:16:11.819Z,26.30
2018-07-20T21:18:39.878Z,26.30
2018-07-20T21:21:07.970Z,26.30
2018-07-20T21:23:36.050Z,26.30
2018-07-20T21:26:04.182Z,26.30
2018-07-20T21:28:32.299Z,26.30
2018-07-20T21:31:00.403Z,26.30
2018-07-20T21:33:28.760Z,26.20
2018-07-20T21:35:56.846Z,26.30
2018-07-20T21:38:24.938Z,26.30
2018-07-20T21:40:53.015Z,26.30
2018-07-20T21:43:21.098Z,26.30
2018-07-20T21:45:49.447Z,26.30
2018-07-20T21:48:17.570Z,26.40
2018-07-20T21:50:45.684Z,26.40
2018-07-20T21:53:14.090Z,26.50
2018-07-20T21:55:42.234Z,26.50
2018-07-20T21:58:10.286Z,26.50
2018-07-20T22:00:38.367Z,26.50
2018-07-20T22:03:06.471Z,26.50
2018-07-20T22:05:34.540Z,26.60
2018-07-20T22:08:02.610Z,26.50
2018-07-20T22:10:30.690Z,26.60
2018-07-20T22:12:58.889Z,26.60
2018-07-20T22:15:26.958Z,26.60
2018-07-20T22:17:55.302Z,26.50
2018-07-20T22:20:23.379Z,26.50
2018-07-20T22:25:19.401Z,26.50
2018-07-20T22:27:47.465Z,26.50
2018-07-20T22:30:15.811Z,26.40
2018-07-20T22:32:43.880Z,26.40
2018-07-20T22:35:12.021Z,26.40
2018-07-20T22:37:40.110Z,26.40
2018-07-20T22:40:08.330Z,26.40
2018-07-20T22:45:04.531Z,26.40
2018-07-20T22:47:32.678Z,26.40
2018-07-20T22:50:00.735Z,26.30
2018-07-20T22:52:28.798Z,26.30
2018-07-20T22:54:56.910Z,26.30
2018-07-20T22:57:25.301Z,26.30
2018-07-20T22:59:53.350Z,26.30
2018-07-20T23:02:21.456Z,26.30
2018-07-20T23:04:49.518Z,26.30
2018-07-20T23:07:17.599Z,26.30
2018-07-20T23:09:45.667Z,26.30
2018-07-20T23:12:13.758Z,26.30
2018-07-20T23:19:38.182Z,26.30
2018-07-20T23:22:06.427Z,26.30
2018-07-20T23:24:34.523Z,26.30
2018-07-20T23:27:02.917Z,26.30
2018-07-20T23:29:31.020Z,26.30
2018-07-20T23:31:59.074Z,26.30
2018-07-20T23:34:27.141Z,26.30
2018-07-20T23:36:55.225Z,26.30
2018-07-20T23:39:23.334Z,26.30
2018-07-20T23:41:51.643Z,26.30
2018-07-20T23:44:19.827Z,26.30
2018-07-20T23:46:47.890Z,26.30
2018-07-20T23:49:16.063Z,26.30
2018-07-20T23:51:44.150Z,26.30
2018-07-20T23:54:12.251Z,26.30
2018-07-20T23:56:40.356Z,26.30
2018-07-20T23:59:08.415Z,26.30
